KBNW/BNW METAR and TAF weather

Enter ICAO airport designator
Station Type Date Time Source
KBNW METAR 2019/08/24 08:55 UTC NOAA

KBNW 240855Z AUTO 12007KT 10SM CLR 15/15 A3019 RMK AO2


Station Type Date Time Source
KBNW Decoded METAR 2019/08/24 08:55 UTC NOAA

Station name not available
Aug 24, 2019 - 04:55 AM EDT / 2019.08.24 0855 UTC
Wind: from the ESE (120 degrees) at 8 MPH (7 KT):0
Visibility: 10 mile(s):0
Sky conditions: clear
Temperature: 59 F (15 C)
Dew Point: 59 F (15 C)
Relative Humidity: 100%
Pressure (altimeter): 30.19 in. Hg (1022 hPa)
ob: KBNW 240855Z AUTO 12007KT 10SM CLR 15/15 A3019 RMK AO2
cycle: 9

Station Type Date Time Source
KBNW TAF UTC NOAA

Error!

Example: see airport list